Diretta Meteo Bergamo-Orio Al Serio, Italiagiovedì 19 aprile ore 12:50

Mappa
Sereno 22 °C Sereno 24 Ore: T.min 13 T.max 24
Ponente Nord Km/h 7.4 Punto di rugiada: 9 °C Umidità: 43% Visibilità: 10 Km
Il sole sorge alle: 06:26 Il sole tramonta alle: 20:14
19 Aprile 2018 12:50 tempo osservato: Sereno Sereno 22 43 1029 vento: Nord N 7.4
19 Aprile 2018 12:20 tempo osservato: Sereno Sereno 22 40 1029 vento: Nord O/SO 11.1
19 Aprile 2018 11:20 tempo osservato: Sereno Sereno 21 46 1029 vento: Nord S/SE 11.1
19 Aprile 2018 10:20 tempo osservato: Sereno Sereno 21 43 1029 vento: Nord E/SE 14.8
19 Aprile 2018 09:20 tempo osservato: Sereno Sereno 19 59 1029 vento: Nord N 5.5
19 Aprile 2018 08:20 tempo osservato: Sereno Sereno 16 67 1029 vento: Nord N 5.5
19 Aprile 2018 07:20 tempo osservato: Sereno Sereno 14 71 1029 vento: Nord N/NE 11.1
19 Aprile 2018 06:50 tempo osservato: Sereno Sereno 13 76 1029 vento: Nord N/NE 11.1
19 Aprile 2018 06:20 tempo osservato: Sereno Sereno 13 76 1029 vento: Nord NE 13
19 Aprile 2018 05:50 tempo osservato: Sereno Sereno 13 76 1029 vento: Nord NE 11.1
19 Aprile 2018 05:20 tempo osservato: Sereno Sereno 13 76 1029 vento: Nord N/NE 13
19 Aprile 2018 04:50 tempo osservato: Sereno Sereno 13 76 1029 vento: Nord N/NE 9.3
19 Aprile 2018 04:20 tempo osservato: Sereno Sereno 13 76 1029 vento: Nord N/NE 9.3
19 Aprile 2018 03:50 tempo osservato: Sereno Sereno 13 76 1029 vento: Nord NE 7.4
19 Aprile 2018 03:20 tempo osservato: Sereno Sereno 15 67 1029 vento: Nord NE 7.4
19 Aprile 2018 02:50 tempo osservato: Sereno Sereno 15 72 1029 vento: Nord N 3.7
19 Aprile 2018 02:20 tempo osservato: Sereno Sereno 15 72 1029 vento: Nord N 11.1
19 Aprile 2018 01:50 tempo osservato: Sereno Sereno 15 72 1029 vento: Nord N 9.3
19 Aprile 2018 01:20 tempo osservato: Sereno Sereno 15 72 1029 vento: Nord N/NE 7.4
19 Aprile 2018 00:20 tempo osservato: Sereno Sereno 15 72 1029 vento: Nord N 11.1
18 Aprile 2018 23:20 tempo osservato: Sereno Sereno 16 72 1029 vento: Nord N 11.1
18 Aprile 2018 22:20 tempo osservato: Sereno Sereno 18 63 1029 vento: Nord N/NE 7.4
18 Aprile 2018 21:20 tempo osservato: Sereno Sereno 18 63 1028 vento: Nord N 0
18 Aprile 2018 20:50 tempo osservato: Sereno Sereno 20 52 1028 vento: Nord N 3.7
18 Aprile 2018 20:20 tempo osservato: Sereno Sereno 21 49 1028 vento: Nord N 5.5
18 Aprile 2018 19:50 tempo osservato: Sereno Sereno 21 49 1028 vento: Nord S 7.4
18 Aprile 2018 19:20 tempo osservato: Sereno Sereno 22 49 1028 vento: Nord S 7.4
18 Aprile 2018 18:20 tempo osservato: Sereno Sereno 23 38 1028 vento: Nord S 11.1
18 Aprile 2018 17:50 tempo osservato: Sereno Sereno 23 40 1027 vento: Nord S 13
18 Aprile 2018 17:20 tempo osservato: Sereno Sereno 24 35 1027 vento: Nord S 13
18 Aprile 2018 16:50 tempo osservato: Sereno Sereno 23 38 1027 vento: Nord S 13
18 Aprile 2018 16:20 tempo osservato: Sereno Sereno 24 41 1027 vento: Nord S 9.3
18 Aprile 2018 15:50 tempo osservato: Sereno Sereno 24 43 1028 vento: Nord S 9.3
18 Aprile 2018 15:20 tempo osservato: Sereno Sereno 24 41 1028 vento: Nord S 7.4
18 Aprile 2018 14:50 tempo osservato: Sereno Sereno 23 43 1028 vento: Nord S 11.1
18 Aprile 2018 14:20 tempo osservato: Sereno Sereno 23 46 1028 vento: Nord N 5.5
18 Aprile 2018 13:50 tempo osservato: Sereno Sereno 23 46 1028 vento: Nord SO 7.4